Revel Montgey Airfield

METAR LFCK TAF LFCK
20 °C
°C
/
°C
19m
Idade
20:18:58
LT
18:18
UTC
0 ft

1.000

2.000

3.000

4.000

5.000

VFR
<?= Yii::t('app', 'Wind direction') ?> <?= Yii::t('app', 'of'); ?>
120°
21:25
Pôr-do-sol
78%
Humidade
Tesoura de Vento
Fechado/Neve
Alcance visual RWY
Condição RWY
Vert. visibilidade
Min. visibilidade
CAVOK
Tendência
Correcção
Relatório especial
1014 hPa
QNH
METAR LFCK 021800Z AUTO 12005KT 090V150 CAVOK 20/16 Q1014 NOSIG
Claro
1 kt
1 kt
20:00
VFR
5 kt
21:00
VFR
5 kt
22:00
VFR
5 kt
23:00
VFR
5 kt
00:00
VFR
5 kt
01:00
VFR
5 kt
02:00
VFR
5 kt
10 km+
Visibilidade
Nenhum
Tecto
5 kt
Vento
metar-taf.com/LFIR

Metar-Taf.com

Decodificador visual

Nós e terceiros acompanhamos seu comportamento na internet em nosso site com cookies. Se você continuar, nós assumimos que você concorda com nosso política de cookies.